createdAt,value
2022-11-27T02:35:58.864Z,5.85
2022-11-27T04:03:36.108Z,4.78
2022-11-27T05:11:52.977Z,6.25
2022-11-27T05:14:20.799Z,8.30
2022-11-27T06:37:45.942Z,13.48
2022-11-27T06:40:12.716Z,5.85
2022-11-27T06:42:39.224Z,8.35
2022-11-27T06:45:06.304Z,8.73
2022-11-27T06:47:32.832Z,9.23
2022-11-27T06:49:59.332Z,10.60
2022-11-27T06:52:25.844Z,8.55
2022-11-27T06:54:52.410Z,10.15
2022-11-27T06:57:18.918Z,8.63
2022-11-27T06:59:45.414Z,7.80
2022-11-27T07:02:15.231Z,11.52
2022-11-27T07:07:22.999Z,8.63
2022-11-27T07:09:49.647Z,8.25
2022-11-27T07:12:16.279Z,10.32
2022-11-27T07:14:43.042Z,8.05
2022-11-27T07:17:09.641Z,7.13
2022-11-27T07:19:36.147Z,8.63
2022-11-27T07:22:02.984Z,8.93
2022-11-27T07:24:29.468Z,5.85
2022-11-27T07:26:56.012Z,6.57
2022-11-27T07:29:22.560Z,8.48
2022-11-27T07:31:51.357Z,7.65
2022-11-27T07:36:59.928Z,8.95
2022-11-27T07:39:54.067Z,8.57
2022-11-27T07:44:59.647Z,5.15
2022-11-27T07:47:26.188Z,5.75
2022-11-27T07:49:55.092Z,8.50
2022-11-27T07:52:21.665Z,9.20
2022-11-27T07:54:48.180Z,10.35
2022-11-27T07:57:14.686Z,7.15
2022-11-27T07:59:46.993Z,6.00
2022-11-27T08:02:14.346Z,6.45
2022-11-27T08:04:41.131Z,6.78
2022-11-27T08:07:07.966Z,8.82
2022-11-27T08:09:34.608Z,8.75
2022-11-27T08:12:01.152Z,7.68
2022-11-27T08:14:27.705Z,9.63
2022-11-27T08:16:54.375Z,7.30
2022-11-27T08:19:20.975Z,7.85
2022-11-27T08:21:47.553Z,8.20
2022-11-27T08:24:14.116Z,6.07
2022-11-27T08:26:40.679Z,6.47
2022-11-27T08:29:07.290Z,4.75
2022-11-27T08:31:34.302Z,8.13
2022-11-27T08:34:00.874Z,5.38
2022-11-27T08:36:27.928Z,9.80
2022-11-27T08:38:55.483Z,12.43
2022-11-27T08:41:22.521Z,4.57
2022-11-27T08:43:49.362Z,7.72
2022-11-27T08:46:15.983Z,7.28
2022-11-27T08:48:42.586Z,4.47
2022-11-27T08:51:11.943Z,6.57
2022-11-27T08:53:39.266Z,12.13
2022-11-27T08:56:12.139Z,7.53
2022-11-27T08:58:40.993Z,5.57
2022-11-27T09:01:09.824Z,8.40
2022-11-27T09:03:36.782Z,7.18
2022-11-27T09:06:06.838Z,7.88
2022-11-27T09:08:33.454Z,7.40
2022-11-27T09:11:01.436Z,6.82
2022-11-27T09:13:28.017Z,7.30
2022-11-27T09:15:56.766Z,5.57
2022-11-27T09:18:23.799Z,8.10
2022-11-27T09:21:17.279Z,6.30
2022-11-27T09:23:44.317Z,5.53
2022-11-27T09:26:13.293Z,6.53
2022-11-27T09:28:40.865Z,6.97
2022-11-27T09:31:10.250Z,5.80
2022-11-27T09:33:39.312Z,4.85
2022-11-27T09:36:07.519Z,6.10
2022-11-27T09:38:34.343Z,10.27
2022-11-27T09:41:19.180Z,5.88
2022-11-27T09:43:56.797Z,8.40
2022-11-27T09:46:35.933Z,3.83
2022-11-27T09:49:09.797Z,3.45
2022-11-27T09:51:44.100Z,3.95
2022-11-27T09:54:25.856Z,11.52
2022-11-27T09:56:54.989Z,6.07
2022-11-27T09:59:28.933Z,7.18
2022-11-27T10:01:55.712Z,7.30
2022-11-27T10:04:22.377Z,7.85
2022-11-27T10:06:58.212Z,5.65
2022-11-27T10:09:43.147Z,4.55
2022-11-27T10:12:37.444Z,5.13
2022-11-27T10:15:27.124Z,4.55
2022-11-27T10:18:11.833Z,7.03
2022-11-27T10:20:46.963Z,6.97
2022-11-27T10:23:35.337Z,3.67
2022-11-27T10:26:07.672Z,5.93
2022-11-27T10:28:45.099Z,2.25
2022-11-27T10:31:19.721Z,4.05
2022-11-27T10:33:53.349Z,4.35
2022-11-27T10:39:12.897Z,3.10
2022-11-27T10:41:59.592Z,4.55
2022-11-27T10:44:34.349Z,2.97
2022-11-27T10:47:04.022Z,2.55
2022-11-27T10:49:31.221Z,2.42
2022-11-27T10:51:57.981Z,4.13
2022-11-27T10:54:33.372Z,3.10
2022-11-27T10:57:25.982Z,2.28
2022-11-27T11:00:10.047Z,3.53
2022-11-27T11:02:39.381Z,2.45
2022-11-27T11:05:34.988Z,2.70
2022-11-27T11:08:16.529Z,2.80
2022-11-27T11:10:51.360Z,3.10
2022-11-27T11:13:23.828Z,2.47
2022-11-27T11:15:52.077Z,3.28
2022-11-27T11:18:31.119Z,1.08
2022-11-27T11:21:01.487Z,1.95
2022-11-27T11:23:31.377Z,1.98
2022-11-27T11:26:21.079Z,4.30
2022-11-27T11:28:52.097Z,3.13
2022-11-27T11:31:21.303Z,1.55
2022-11-27T11:34:01.320Z,1.95
2022-11-27T11:36:27.891Z,4.50
2022-11-27T11:38:54.977Z,3.85
2022-11-27T11:41:23.763Z,2.78
2022-11-27T11:44:02.205Z,4.82
2022-11-27T11:46:32.809Z,3.65
2022-11-27T11:49:19.874Z,2.97
2022-11-27T11:52:03.219Z,3.78
2022-11-27T11:54:39.076Z,3.15
2022-11-27T11:57:26.461Z,3.15
2022-11-27T12:00:11.405Z,2.00
2022-11-27T12:02:56.052Z,2.72
2022-11-27T12:05:59.510Z,2.50
2022-11-27T12:08:33.823Z,4.20
2022-11-27T12:11:09.703Z,3.65
2022-11-27T12:13:45.268Z,2.92
2022-11-27T12:16:48.407Z,2.25
2022-11-27T12:19:26.908Z,1.63
2022-11-27T12:22:29.852Z,5.85
2022-11-27T12:25:15.112Z,3.35
2022-11-27T12:27:56.657Z,2.50
2022-11-27T12:30:27.660Z,4.47
2022-11-27T12:33:06.245Z,3.00
2022-11-27T12:36:04.420Z,3.33
2022-11-27T12:38:49.033Z,2.55
2022-11-27T12:41:49.174Z,3.55
2022-11-27T12:44:38.762Z,4.95
2022-11-27T12:47:12.436Z,3.60
2022-11-27T12:49:45.097Z,4.30
2022-11-27T12:52:20.516Z,4.60
2022-11-27T12:55:04.730Z,3.92
2022-11-27T12:57:43.839Z,3.60
2022-11-27T13:00:23.083Z,3.13
2022-11-27T13:03:10.729Z,2.30
2022-11-27T13:06:03.874Z,3.28
2022-11-27T13:08:46.137Z,3.05
2022-11-27T13:11:19.409Z,2.97
2022-11-27T13:13:50.073Z,3.33
2022-11-27T13:16:36.127Z,2.60
2022-11-27T13:19:32.076Z,2.88
2022-11-27T13:22:00.272Z,2.92
2022-11-27T13:24:28.661Z,4.30
2022-11-27T13:27:15.926Z,5.28
2022-11-27T13:29:57.464Z,3.30
2022-11-27T13:32:31.625Z,3.58
2022-11-27T13:35:02.669Z,2.22
2022-11-27T13:37:37.269Z,1.90
2022-11-27T13:40:16.740Z,6.32
2022-11-27T13:42:45.829Z,2.17
2022-11-27T13:45:21.914Z,2.90
2022-11-27T13:47:50.661Z,3.85
2022-11-27T13:50:21.504Z,2.95
2022-11-27T13:53:05.084Z,2.85
2022-11-27T13:55:37.700Z,3.83
2022-11-27T13:58:05.689Z,4.33
2022-11-27T14:00:34.241Z,5.53
2022-11-27T14:03:01.568Z,3.85
2022-11-27T14:05:39.176Z,3.30
2022-11-27T14:08:36.172Z,2.70
2022-11-27T14:11:08.705Z,6.03
2022-11-27T14:13:42.525Z,4.70
2022-11-27T14:16:28.091Z,5.38
2022-11-27T14:18:58.706Z,4.47
2022-11-27T14:21:40.874Z,6.20
2022-11-27T14:24:47.089Z,1.80
2022-11-27T14:27:17.387Z,2.72
2022-11-27T14:29:44.076Z,3.60
2022-11-27T14:32:13.776Z,2.42
2022-11-27T14:34:40.763Z,4.75
2022-11-27T14:37:19.786Z,5.65
2022-11-27T14:39:46.337Z,5.47
2022-11-27T14:42:29.793Z,7.45
2022-11-27T14:45:06.654Z,3.92
2022-11-27T14:47:34.082Z,3.15
2022-11-27T14:50:01.382Z,4.18
2022-11-27T14:52:28.482Z,3.58
2022-11-27T14:54:55.785Z,5.38
2022-11-27T14:57:27.980Z,5.13
2022-11-27T15:00:21.673Z,5.13
2022-11-27T15:02:49.911Z,4.28
2022-11-27T15:05:25.685Z,9.00
2022-11-27T15:07:55.583Z,8.73
2022-11-27T15:10:29.076Z,9.40
2022-11-27T15:12:56.452Z,5.35
2022-11-27T15:15:27.461Z,4.40
2022-11-27T15:17:57.865Z,8.75
2022-11-27T15:20:25.864Z,5.97
2022-11-27T15:22:55.445Z,5.07
2022-11-27T15:25:37.786Z,5.80
2022-11-27T15:28:35.424Z,4.05
2022-11-27T15:31:04.352Z,7.15
2022-11-27T15:33:33.002Z,10.02
2022-11-27T15:36:21.739Z,4.68
2022-11-27T15:38:50.929Z,13.15
2022-11-27T15:41:28.823Z,12.20
2022-11-27T15:43:56.373Z,8.20
2022-11-27T15:46:33.033Z,11.75
2022-11-27T15:48:59.875Z,4.35
2022-11-27T15:51:26.368Z,3.58
2022-11-27T15:53:52.860Z,3.67
2022-11-27T15:56:19.517Z,8.52
2022-11-27T15:58:46.035Z,7.07
2022-11-27T16:01:12.655Z,10.05
2022-11-27T16:03:40.085Z,5.22
2022-11-27T16:06:08.551Z,5.90
2022-11-27T16:08:35.322Z,7.40
2022-11-27T16:11:05.053Z,5.97
2022-11-27T16:13:31.646Z,4.80
2022-11-27T16:16:06.571Z,5.47
2022-11-27T16:18:34.541Z,9.38
2022-11-27T16:21:05.773Z,7.13
2022-11-27T16:23:32.938Z,6.15
2022-11-27T16:25:59.700Z,7.07
2022-11-27T16:28:30.462Z,6.15
2022-11-27T16:30:59.151Z,4.25
2022-11-27T16:33:27.049Z,7.45
2022-11-27T16:35:53.637Z,6.57
2022-11-27T16:38:20.972Z,8.13
2022-11-27T16:40:49.572Z,10.48
2022-11-27T16:43:16.494Z,7.13
2022-11-27T16:45:43.055Z,8.18
2022-11-27T16:48:09.716Z,6.90
2022-11-27T16:50:36.331Z,8.93
2022-11-27T16:53:02.833Z,12.45
2022-11-27T16:55:29.330Z,8.85
2022-11-27T16:57:55.896Z,11.02
2022-11-27T17:00:22.657Z,10.88
2022-11-27T17:02:49.206Z,7.90
2022-11-27T17:05:15.791Z,10.52
2022-11-27T17:07:42.664Z,12.50
2022-11-27T17:10:09.487Z,12.55
2022-11-27T17:12:36.067Z,13.50
2022-11-27T17:15:02.615Z,11.30
2022-11-27T17:17:29.873Z,11.40
2022-11-27T17:20:00.378Z,14.98
2022-11-27T17:22:28.400Z,12.77
2022-11-27T17:24:57.562Z,8.57
2022-11-27T17:27:24.275Z,11.85
2022-11-27T17:29:50.797Z,9.40
2022-11-27T17:32:18.208Z,10.75
2022-11-27T17:34:45.449Z,9.88
2022-11-27T17:37:12.579Z,11.63
2022-11-27T17:39:40.852Z,12.25
2022-11-27T17:42:12.655Z,16.45
2022-11-27T17:44:40.559Z,11.93
2022-11-27T17:47:07.065Z,11.60
2022-11-27T17:49:33.807Z,14.20
2022-11-27T17:52:06.016Z,14.13
2022-11-27T17:54:33.873Z,13.38
2022-11-27T17:57:00.361Z,14.40
2022-11-27T17:59:26.906Z,9.52
2022-11-27T18:01:53.614Z,11.40
2022-11-27T18:04:20.539Z,15.85
2022-11-27T18:06:47.261Z,9.38
2022-11-27T18:09:13.823Z,8.52
2022-11-27T18:11:40.397Z,6.80
2022-11-27T18:14:07.177Z,7.18
2022-11-27T18:16:38.184Z,7.60
2022-11-27T18:19:07.583Z,8.57
2022-11-27T18:21:35.314Z,7.63
2022-11-27T18:29:37.561Z,13.80
2022-11-27T18:32:04.536Z,9.57
2022-11-27T18:34:31.343Z,10.23
2022-11-27T18:36:59.651Z,14.48
2022-11-27T18:39:27.286Z,11.90
2022-11-27T18:41:53.856Z,17.15
2022-11-27T18:44:20.391Z,13.38
2022-11-27T18:46:46.965Z,19.45
2022-11-27T18:49:13.517Z,19.90
2022-11-27T18:51:40.059Z,21.00
2022-11-27T18:54:06.583Z,25.80
2022-11-27T18:56:33.327Z,33.60
2022-11-27T18:59:05.243Z,50.67
2022-11-27T19:01:39.685Z,128.70
2022-11-27T19:04:08.414Z,82.50
2022-11-27T19:06:35.795Z,49.53
2022-11-27T19:09:03.359Z,58.13
2022-11-27T19:11:30.953Z,40.42
2022-11-27T19:13:58.288Z,87.43
2022-11-27T19:16:34.078Z,166.80
2022-11-27T19:19:01.896Z,65.40
2022-11-27T19:21:30.648Z,123.43
2022-11-27T19:23:58.885Z,57.72
2022-11-27T19:26:31.889Z,106.07
2022-11-27T19:29:01.448Z,95.32
2022-11-27T19:31:30.365Z,68.65
2022-11-27T19:33:59.028Z,39.08
2022-11-27T19:36:26.277Z,32.33
2022-11-27T19:39:05.791Z,19.85
2022-11-27T19:41:33.000Z,44.28
2022-11-27T19:44:04.740Z,30.60
2022-11-27T19:46:34.632Z,45.45
2022-11-27T19:49:06.646Z,66.63
2022-11-27T19:51:38.424Z,39.05
2022-11-27T19:54:09.879Z,105.70
2022-11-27T19:56:38.796Z,48.55
2022-11-27T19:59:05.914Z,85.93
2022-11-27T20:01:32.762Z,62.20
2022-11-27T20:03:59.948Z,62.60
2022-11-27T20:06:27.336Z,61.55
2022-11-27T20:08:59.677Z,85.32
2022-11-27T20:11:31.165Z,120.07
2022-11-27T20:14:00.712Z,107.35
2022-11-27T20:16:27.560Z,49.10
2022-11-27T20:18:55.356Z,83.93
2022-11-27T20:21:24.497Z,103.60
2022-11-27T20:23:52.810Z,31.80
2022-11-27T20:26:22.307Z,37.38
2022-11-27T20:28:50.441Z,59.13
2022-11-27T20:31:22.282Z,51.40
2022-11-27T20:33:48.964Z,148.27
2022-11-27T20:36:17.765Z,36.75
2022-11-27T20:38:45.266Z,77.82
2022-11-27T20:41:17.717Z,86.70
2022-11-27T20:43:44.580Z,104.10
2022-11-27T20:46:16.063Z,119.18
2022-11-27T20:48:46.110Z,118.53
2022-11-27T20:51:15.825Z,63.33
2022-11-27T20:53:44.163Z,83.05
2022-11-27T20:56:12.241Z,175.95
2022-11-27T20:58:40.838Z,102.93
2022-11-27T21:01:17.560Z,102.22
2022-11-27T21:03:46.199Z,89.30
2022-11-27T21:06:14.608Z,127.57
2022-11-27T21:08:41.572Z,33.75
2022-11-27T21:11:26.136Z,74.32
2022-11-27T21:13:55.986Z,63.28
2022-11-27T21:16:25.169Z,149.20
2022-11-27T21:18:53.710Z,101.03
2022-11-27T21:21:20.237Z,51.40
2022-11-27T21:23:46.845Z,144.05
2022-11-27T21:26:16.229Z,159.27
2022-11-27T21:28:43.120Z,74.15
2022-11-27T21:31:17.066Z,103.47
2022-11-27T21:33:52.188Z,65.13
2022-11-27T21:36:20.533Z,171.32
2022-11-27T21:38:47.307Z,33.38
2022-11-27T21:41:14.027Z,74.32
2022-11-27T21:43:48.052Z,100.35
2022-11-27T21:46:17.528Z,139.20
2022-11-27T21:48:45.521Z,171.82
2022-11-27T21:51:12.825Z,117.03
2022-11-27T21:53:40.667Z,72.75
2022-11-27T21:56:08.556Z,45.83
2022-11-27T21:58:36.113Z,70.32
2022-11-27T22:01:04.713Z,42.17
2022-11-27T22:03:31.424Z,47.33
2022-11-27T22:05:59.793Z,59.63
2022-11-27T22:08:26.344Z,78.30
2022-11-27T22:10:52.931Z,86.55
2022-11-27T22:13:19.740Z,61.13
2022-11-27T22:15:46.603Z,52.03
2022-11-27T22:18:13.232Z,80.03
2022-11-27T22:20:40.504Z,133.77
2022-11-27T22:23:07.517Z,40.15
2022-11-27T22:25:34.241Z,61.22
2022-11-27T22:28:00.758Z,64.63
2022-11-27T22:30:27.869Z,29.95
2022-11-27T22:32:56.023Z,35.78
2022-11-27T22:35:23.322Z,92.30
2022-11-27T22:37:53.611Z,146.48
2022-11-27T22:40:21.396Z,55.67
2022-11-27T22:42:48.151Z,161.82
2022-11-27T22:45:14.784Z,134.13
2022-11-27T22:47:41.372Z,48.03
2022-11-27T22:50:08.065Z,39.72
2022-11-27T22:52:34.563Z,41.95
2022-11-27T22:55:01.227Z,48.90
2022-11-27T22:57:27.761Z,82.15
2022-11-27T22:59:54.279Z,29.63
2022-11-27T23:02:20.918Z,49.30
2022-11-27T23:04:47.568Z,43.30
2022-11-27T23:07:14.098Z,53.17
2022-11-27T23:09:40.651Z,82.65
2022-11-27T23:12:07.297Z,25.02
2022-11-27T23:14:33.853Z,39.85
2022-11-27T23:17:00.480Z,99.28
2022-11-27T23:19:27.155Z,61.53
2022-11-27T23:21:53.784Z,24.23
2022-11-27T23:24:20.654Z,33.88
2022-11-27T23:26:47.270Z,30.08
2022-11-27T23:29:14.472Z,46.67
2022-11-27T23:31:41.847Z,48.17
2022-11-27T23:34:10.957Z,53.38
2022-11-27T23:36:38.609Z,37.22
2022-11-27T23:39:07.148Z,78.03
2022-11-27T23:41:33.765Z,29.98
2022-11-27T23:44:01.556Z,33.35
2022-11-27T23:46:29.938Z,40.03
2022-11-27T23:48:58.133Z,76.57
2022-11-27T23:51:27.320Z,23.92
2022-11-27T23:53:54.203Z,68.70
2022-11-27T23:56:23.601Z,71.30
2022-11-27T23:58:50.215Z,105.70
